createdAt,value
2022-12-07T00:01:52.645Z,45.30
2022-12-07T00:04:21.904Z,47.77
2022-12-07T00:06:53.977Z,45.13
2022-12-07T00:09:24.640Z,44.27
2022-12-07T00:11:54.324Z,43.30
2022-12-07T00:14:23.726Z,42.33
2022-12-07T00:16:53.907Z,44.17
2022-12-07T00:19:23.367Z,42.33
2022-12-07T00:21:52.573Z,42.57
2022-12-07T00:24:22.223Z,42.30
2022-12-07T00:26:52.839Z,41.73
2022-12-07T00:29:24.404Z,45.90
2022-12-07T00:31:53.826Z,36.27
2022-12-07T00:34:23.846Z,44.23
2022-12-07T00:36:53.597Z,45.40
2022-12-07T00:39:22.864Z,39.63
2022-12-07T00:41:53.712Z,44.03
2022-12-07T00:44:22.921Z,41.17
2022-12-07T00:46:52.102Z,41.83
2022-12-07T00:49:21.360Z,44.00
2022-12-07T00:51:51.430Z,49.93
2022-12-07T00:54:20.700Z,39.77
2022-12-07T00:56:49.813Z,46.00
2022-12-07T00:59:20.567Z,46.80
2022-12-07T01:01:50.060Z,46.17
2022-12-07T01:04:19.270Z,46.90
2022-12-07T01:06:48.432Z,40.60
2022-12-07T01:09:17.595Z,44.00
2022-12-07T01:11:46.783Z,47.73
2022-12-07T01:14:15.923Z,47.33
2022-12-07T01:16:46.618Z,53.13
2022-12-07T01:19:16.188Z,45.23
2022-12-07T01:21:45.782Z,40.87
2022-12-07T01:24:14.982Z,47.67
2022-12-07T01:26:44.339Z,44.87
2022-12-07T01:29:13.630Z,47.80
2022-12-07T01:31:42.877Z,43.20
2022-12-07T01:34:13.672Z,45.37
2022-12-07T01:36:43.160Z,44.10
2022-12-07T01:39:13.131Z,45.27
2022-12-07T01:41:44.652Z,46.10
2022-12-07T01:44:16.316Z,45.27
2022-12-07T01:46:46.717Z,44.50
2022-12-07T01:49:19.445Z,38.60
2022-12-07T01:51:49.447Z,43.60
2022-12-07T01:54:19.229Z,43.60
2022-12-07T01:56:52.340Z,46.67
2022-12-07T01:59:23.283Z,43.40
2022-12-07T02:01:52.596Z,46.80
2022-12-07T02:04:24.356Z,45.53
2022-12-07T02:06:53.708Z,42.57
2022-12-07T02:09:22.917Z,47.23
2022-12-07T02:11:52.966Z,42.30
2022-12-07T02:14:22.258Z,46.23
2022-12-07T02:16:57.321Z,44.60
2022-12-07T02:19:42.565Z,42.20
2022-12-07T02:22:21.516Z,43.20
2022-12-07T02:24:56.081Z,45.37
2022-12-07T02:27:38.024Z,45.13
2022-12-07T02:30:10.601Z,43.50
2022-12-07T02:32:47.994Z,45.60
2022-12-07T02:35:20.687Z,45.87
2022-12-07T02:37:56.884Z,44.20
2022-12-07T02:40:28.278Z,45.57
2022-12-07T02:43:00.963Z,46.73
2022-12-07T02:45:32.832Z,50.60
2022-12-07T02:48:03.397Z,41.50
2022-12-07T02:50:32.912Z,47.57
2022-12-07T02:53:02.136Z,44.27
2022-12-07T02:55:32.783Z,42.87
2022-12-07T02:58:11.908Z,39.43
2022-12-07T03:00:47.775Z,45.07
2022-12-07T03:03:17.370Z,47.20
2022-12-07T03:05:57.732Z,43.73
2022-12-07T03:08:32.271Z,42.33
2022-12-07T03:11:01.983Z,43.20
2022-12-07T03:13:33.725Z,42.43
2022-12-07T03:16:06.305Z,40.13
2022-12-07T03:18:39.598Z,47.30
2022-12-07T03:21:11.842Z,43.70
2022-12-07T03:23:42.172Z,45.50
2022-12-07T03:26:12.855Z,41.67
2022-12-07T03:28:43.521Z,40.77
2022-12-07T03:31:16.710Z,41.80
2022-12-07T03:33:49.269Z,43.70
2022-12-07T03:36:20.531Z,42.03
2022-12-07T03:38:51.957Z,40.03
2022-12-07T03:41:23.342Z,38.60
2022-12-07T03:43:52.604Z,43.00
2022-12-07T03:46:27.790Z,39.40
2022-12-07T03:49:00.925Z,40.90
2022-12-07T03:51:32.234Z,38.80
2022-12-07T03:54:04.351Z,39.43
2022-12-07T03:56:34.116Z,38.50
2022-12-07T03:59:03.254Z,41.50
2022-12-07T04:01:34.780Z,46.23
2022-12-07T04:04:04.060Z,43.10
2022-12-07T04:06:33.333Z,39.10
2022-12-07T04:09:02.831Z,41.80
2022-12-07T04:11:32.003Z,40.73
2022-12-07T04:14:19.094Z,38.60
2022-12-07T04:16:50.715Z,39.77
2022-12-07T04:19:20.622Z,36.17
2022-12-07T04:21:50.108Z,36.13
2022-12-07T04:24:19.848Z,36.50
2022-12-07T04:26:49.681Z,39.83
2022-12-07T04:29:19.783Z,36.67
2022-12-07T04:31:50.840Z,35.57
2022-12-07T04:34:20.428Z,38.40
2022-12-07T04:36:49.942Z,38.13
2022-12-07T04:39:21.443Z,40.57
2022-12-07T04:41:50.788Z,39.40
2022-12-07T04:44:20.479Z,35.23
2022-12-07T04:46:51.326Z,34.67
2022-12-07T04:49:21.360Z,35.83
2022-12-07T04:51:50.645Z,36.73
2022-12-07T04:54:19.988Z,34.33
2022-12-07T04:56:49.251Z,37.00
2022-12-07T04:59:18.954Z,38.03
2022-12-07T05:01:48.547Z,35.50
2022-12-07T05:04:19.849Z,38.13
2022-12-07T05:06:49.102Z,35.60
2022-12-07T05:09:18.290Z,43.07
2022-12-07T05:11:47.611Z,38.87
2022-12-07T05:14:17.413Z,35.47
2022-12-07T05:16:47.338Z,37.37
2022-12-07T05:19:16.632Z,41.37
2022-12-07T05:21:47.384Z,40.63
2022-12-07T05:24:17.481Z,34.83
2022-12-07T05:26:47.287Z,38.03
2022-12-07T05:29:18.236Z,37.10
2022-12-07T05:31:47.637Z,37.53
2022-12-07T05:34:16.917Z,35.20
2022-12-07T05:36:47.705Z,40.30
2022-12-07T05:39:16.963Z,35.47
2022-12-07T05:42:03.468Z,36.13
2022-12-07T05:44:32.736Z,35.70
2022-12-07T05:47:01.860Z,0.87
2022-12-07T05:49:31.362Z,34.03
2022-12-07T05:52:01.994Z,1.07
2022-12-07T05:54:31.207Z,1.10
2022-12-07T05:57:00.434Z,1.00
2022-12-07T05:59:28.874Z,0.90
2022-12-07T06:01:59.187Z,0.90
2022-12-07T06:04:29.160Z,1.03
2022-12-07T06:06:58.405Z,1.50
2022-12-07T06:09:29.940Z,2.80
2022-12-07T06:12:16.877Z,0.80
2022-12-07T06:14:46.412Z,0.97
2022-12-07T06:17:16.039Z,0.87
2022-12-07T06:19:45.500Z,1.07
2022-12-07T06:22:14.942Z,0.97
2022-12-07T06:24:45.598Z,0.90
2022-12-07T06:27:15.340Z,2.67
2022-12-07T06:29:44.786Z,0.93
2022-12-07T06:32:14.029Z,1.97
2022-12-07T06:34:43.343Z,1.10
2022-12-07T06:37:12.534Z,0.97
2022-12-07T06:39:41.757Z,0.90
2022-12-07T06:42:12.359Z,3.43
2022-12-07T06:44:41.554Z,0.90
2022-12-07T06:47:39.714Z,1.00
2022-12-07T06:50:00.331Z,1.13
2022-12-07T06:52:29.733Z,1.27
2022-12-07T06:54:59.896Z,2.17
2022-12-07T06:57:30.525Z,4.77
2022-12-07T06:59:59.913Z,2.40
2022-12-07T07:02:29.506Z,0.93
2022-12-07T07:04:58.996Z,1.30
2022-12-07T07:07:28.162Z,1.30
2022-12-07T07:09:57.432Z,1.00
2022-12-07T07:12:26.896Z,0.90
2022-12-07T07:14:57.873Z,1.00
2022-12-07T07:17:27.012Z,1.10
2022-12-07T07:19:56.379Z,1.10
2022-12-07T07:22:25.712Z,1.10
2022-12-07T07:24:54.924Z,1.70
2022-12-07T07:27:24.540Z,0.80
2022-12-07T07:29:54.025Z,0.97
2022-12-07T07:32:24.614Z,0.97
2022-12-07T07:34:54.165Z,1.30
2022-12-07T07:37:23.343Z,1.93
2022-12-07T07:39:52.813Z,10.53
2022-12-07T07:42:22.071Z,1.10
2022-12-07T07:44:51.407Z,1.00
2022-12-07T07:47:20.570Z,1.87
2022-12-07T07:49:51.218Z,1.23
2022-12-07T07:52:20.657Z,1.10
2022-12-07T07:54:50.321Z,0.90
2022-12-07T07:57:19.707Z,20.73
2022-12-07T07:59:49.024Z,1.00
2022-12-07T08:02:19.043Z,1.00
2022-12-07T08:04:48.876Z,1.73
2022-12-07T08:07:19.615Z,1.00
2022-12-07T08:09:48.765Z,1.53
2022-12-07T08:12:18.086Z,0.80
2022-12-07T08:14:47.303Z,0.90
2022-12-07T08:17:16.749Z,1.00
2022-12-07T08:19:46.183Z,1.47
2022-12-07T08:22:15.617Z,9.90
2022-12-07T08:24:46.339Z,0.97
2022-12-07T08:27:15.615Z,0.90
2022-12-07T08:29:44.954Z,0.83
2022-12-07T08:32:14.512Z,0.90
2022-12-07T08:34:43.760Z,1.00
2022-12-07T08:37:13.006Z,4.37
2022-12-07T08:39:42.260Z,0.90
2022-12-07T08:42:13.026Z,1.83
2022-12-07T08:44:42.390Z,1.00
2022-12-07T08:47:12.881Z,0.80
2022-12-07T08:49:43.750Z,0.90
2022-12-07T08:52:13.009Z,2.13
2022-12-07T08:54:43.224Z,1.07
2022-12-07T08:57:14.274Z,1.30
2022-12-07T08:59:43.551Z,0.90
2022-12-07T09:02:12.714Z,0.90
2022-12-07T09:04:41.967Z,1.10
2022-12-07T09:07:11.902Z,1.40
2022-12-07T09:09:41.680Z,1.03
2022-12-07T09:12:11.676Z,5.40
2022-12-07T09:14:42.451Z,4.07
2022-12-07T09:17:12.794Z,5.43
2022-12-07T09:19:43.585Z,1.83
2022-12-07T09:22:13.274Z,3.03
2022-12-07T09:24:42.706Z,5.60
2022-12-07T09:27:11.914Z,0.93
2022-12-07T09:29:42.511Z,2.03
2022-12-07T09:32:12.402Z,1.40
2022-12-07T09:34:41.892Z,1.20
2022-12-07T09:37:11.352Z,1.03
2022-12-07T09:39:44.790Z,7.40
2022-12-07T09:42:27.351Z,1.00
2022-12-07T09:44:59.292Z,0.90
2022-12-07T09:47:28.979Z,2.93
2022-12-07T09:49:59.118Z,4.57
2022-12-07T09:52:34.237Z,1.20
2022-12-07T09:55:06.576Z,3.33
2022-12-07T09:57:38.316Z,1.40
2022-12-07T10:00:10.430Z,2.30
2022-12-07T10:02:43.052Z,0.80
2022-12-07T10:05:20.516Z,0.80
2022-12-07T10:07:53.206Z,1.50
2022-12-07T10:10:26.727Z,1.77
2022-12-07T10:12:57.234Z,1.30
2022-12-07T10:15:44.012Z,7.10
2022-12-07T10:18:24.445Z,1.10
2022-12-07T10:21:03.147Z,0.90
2022-12-07T10:23:32.796Z,3.90
2022-12-07T10:26:02.156Z,1.57
2022-12-07T10:28:42.295Z,1.37
2022-12-07T10:31:20.464Z,1.97
2022-12-07T10:33:53.121Z,3.10
2022-12-07T10:36:24.229Z,2.27
2022-12-07T10:38:54.566Z,0.90
2022-12-07T10:41:23.747Z,4.00
2022-12-07T10:43:54.298Z,0.90
2022-12-07T10:46:53.489Z,1.73
2022-12-07T10:49:36.439Z,7.13
2022-12-07T10:52:12.132Z,2.20
2022-12-07T10:54:47.070Z,1.17
2022-12-07T10:57:31.409Z,1.27
2022-12-07T11:00:06.269Z,2.53
2022-12-07T11:02:53.865Z,1.03
2022-12-07T11:05:27.308Z,1.00
2022-12-07T11:08:02.775Z,1.97
2022-12-07T11:10:40.853Z,1.10
2022-12-07T11:13:19.861Z,0.80
2022-12-07T11:16:00.304Z,1.30
2022-12-07T11:18:31.770Z,0.90
2022-12-07T11:21:09.308Z,0.87
2022-12-07T11:23:43.979Z,2.87
2022-12-07T11:26:17.745Z,0.90
2022-12-07T11:28:57.356Z,10.70
2022-12-07T11:31:30.777Z,1.30
2022-12-07T11:34:03.866Z,4.20
2022-12-07T11:36:44.135Z,7.30
2022-12-07T11:39:19.494Z,2.83
2022-12-07T11:41:50.472Z,3.57
2022-12-07T11:44:27.590Z,3.37
2022-12-07T11:46:59.708Z,0.90
2022-12-07T11:49:36.728Z,1.47
2022-12-07T11:52:09.264Z,7.47
2022-12-07T11:54:39.693Z,3.27
2022-12-07T11:57:18.377Z,1.67
2022-12-07T11:59:51.547Z,4.43
2022-12-07T12:02:25.371Z,0.93
2022-12-07T12:04:57.373Z,0.90
2022-12-07T12:10:21.293Z,1.00
2022-12-07T12:16:10.986Z,0.90
2022-12-07T12:18:49.587Z,1.10
2022-12-07T12:21:20.227Z,1.47
2022-12-07T12:23:53.334Z,3.10
2022-12-07T12:26:24.591Z,1.30
2022-12-07T12:28:56.007Z,1.20
2022-12-07T12:31:38.010Z,1.87
2022-12-07T12:34:08.720Z,1.53
2022-12-07T12:36:48.099Z,3.07
2022-12-07T12:39:20.358Z,3.53
2022-12-07T12:42:08.378Z,2.77
2022-12-07T12:45:07.866Z,1.33
2022-12-07T12:47:44.387Z,2.40
2022-12-07T12:50:22.455Z,0.80
2022-12-07T12:52:54.697Z,0.90
2022-12-07T12:55:54.029Z,1.00
2022-12-07T12:58:34.942Z,0.93
2022-12-07T13:01:22.957Z,1.00
2022-12-07T13:03:56.743Z,1.33
2022-12-07T13:06:39.237Z,1.40
2022-12-07T13:09:21.049Z,0.90
2022-12-07T13:11:50.590Z,0.87
2022-12-07T13:14:38.177Z,4.20
2022-12-07T13:17:11.306Z,0.90
2022-12-07T13:20:02.662Z,3.70
2022-12-07T13:22:56.941Z,2.10
2022-12-07T13:25:39.402Z,1.47
2022-12-07T13:28:12.843Z,0.90
2022-12-07T13:30:46.673Z,1.60
2022-12-07T13:33:18.249Z,0.80
2022-12-07T13:35:47.949Z,1.20
2022-12-07T13:38:26.021Z,2.60
2022-12-07T13:41:05.884Z,1.60
2022-12-07T13:43:45.316Z,3.73
2022-12-07T13:46:18.559Z,1.10
2022-12-07T13:48:50.286Z,2.53
2022-12-07T13:51:24.187Z,1.17
2022-12-07T13:53:54.846Z,0.80
2022-12-07T13:56:30.509Z,1.03
2022-12-07T13:59:00.076Z,1.67
2022-12-07T14:01:29.527Z,2.47
2022-12-07T14:04:19.254Z,0.80
2022-12-07T14:06:52.370Z,4.77
2022-12-07T14:09:23.665Z,2.03
2022-12-07T14:11:53.634Z,0.90
2022-12-07T14:14:24.519Z,2.03
2022-12-07T14:17:04.748Z,1.33
2022-12-07T14:19:51.921Z,5.90
2022-12-07T14:22:26.237Z,5.73
2022-12-07T14:25:02.295Z,0.80
2022-12-07T14:27:35.110Z,2.63
2022-12-07T14:30:04.484Z,0.90
2022-12-07T14:32:34.250Z,0.80
2022-12-07T14:35:06.225Z,2.03
2022-12-07T14:37:35.740Z,1.00
2022-12-07T14:40:04.927Z,0.90
2022-12-07T14:42:34.706Z,0.90
2022-12-07T14:45:04.295Z,1.70
2022-12-07T14:50:24.915Z,0.90
2022-12-07T14:55:44.877Z,1.00
2022-12-07T14:58:16.623Z,1.30
2022-12-07T15:00:46.446Z,1.23
2022-12-07T15:03:15.758Z,0.90
2022-12-07T15:05:46.470Z,0.90
2022-12-07T15:08:16.160Z,0.90
2022-12-07T15:10:45.470Z,2.13
2022-12-07T15:13:32.290Z,0.87
2022-12-07T15:16:01.574Z,1.37
2022-12-07T15:18:30.838Z,1.33
2022-12-07T15:21:01.730Z,2.03
2022-12-07T15:23:30.967Z,2.83
2022-12-07T15:26:00.295Z,1.00
2022-12-07T15:28:29.535Z,1.20
2022-12-07T15:31:07.138Z,1.10
2022-12-07T15:33:46.560Z,0.80
2022-12-07T15:36:21.160Z,3.40
2022-12-07T15:39:13.124Z,0.80
2022-12-07T15:41:40.161Z,0.70
2022-12-07T15:44:30.881Z,0.90
2022-12-07T15:47:00.617Z,3.13
2022-12-07T15:49:30.822Z,1.90
2022-12-07T15:52:01.772Z,2.63
2022-12-07T15:54:31.786Z,0.97
2022-12-07T15:57:01.028Z,0.90
2022-12-07T15:59:31.141Z,3.33
2022-12-07T16:02:00.405Z,1.50
2022-12-07T16:04:30.582Z,1.50
2022-12-07T16:07:01.453Z,1.10
2022-12-07T16:09:30.811Z,1.60
2022-12-07T16:12:00.070Z,0.90
2022-12-07T16:14:29.400Z,0.90
2022-12-07T16:16:58.614Z,1.40
2022-12-07T16:19:27.942Z,0.80
2022-12-07T16:21:57.567Z,0.90
2022-12-07T16:24:28.397Z,2.47
2022-12-07T16:26:57.626Z,2.20
2022-12-07T16:29:27.096Z,0.90
2022-12-07T16:31:56.454Z,0.90
2022-12-07T16:34:25.666Z,0.90
2022-12-07T16:37:05.303Z,0.87
2022-12-07T16:39:36.991Z,8.27
2022-12-07T16:42:06.737Z,0.80
2022-12-07T16:44:36.177Z,3.13
2022-12-07T16:47:05.691Z,1.30
2022-12-07T16:49:35.205Z,0.83
2022-12-07T16:52:21.309Z,0.90
2022-12-07T16:54:52.525Z,0.90
2022-12-07T16:57:23.957Z,0.87
2022-12-07T16:59:53.741Z,18.33
2022-12-07T17:02:22.910Z,0.90
2022-12-07T17:04:53.338Z,1.13
2022-12-07T17:07:22.532Z,1.40
2022-12-07T17:09:53.308Z,0.87
2022-12-07T17:12:22.518Z,2.47
2022-12-07T17:15:08.968Z,4.53
2022-12-07T17:17:38.462Z,1.53
2022-12-07T17:20:08.482Z,2.50
2022-12-07T17:22:37.925Z,1.10
2022-12-07T17:25:09.035Z,2.10
2022-12-07T17:27:38.598Z,1.20
2022-12-07T17:30:08.917Z,1.23
2022-12-07T17:32:38.621Z,1.20
2022-12-07T17:35:08.440Z,0.83
2022-12-07T17:37:37.724Z,0.90
2022-12-07T17:40:09.852Z,0.80
2022-12-07T17:42:40.617Z,0.80
2022-12-07T17:45:11.352Z,0.80
2022-12-07T17:47:41.093Z,1.97
2022-12-07T17:50:10.975Z,0.90
2022-12-07T17:52:58.320Z,1.10
2022-12-07T17:55:29.180Z,2.60
2022-12-07T17:57:58.459Z,2.97
2022-12-07T18:00:27.656Z,4.00
2022-12-07T18:02:56.878Z,0.80
2022-12-07T18:05:26.096Z,2.90
2022-12-07T18:07:55.851Z,1.40
2022-12-07T18:10:25.139Z,1.00
2022-12-07T18:13:16.616Z,2.07
2022-12-07T18:15:46.235Z,3.33
2022-12-07T18:18:15.404Z,0.90
2022-12-07T18:20:46.422Z,1.53
2022-12-07T18:23:15.787Z,2.60
2022-12-07T18:25:49.136Z,0.80
2022-12-07T18:28:19.891Z,1.10
2022-12-07T18:31:14.385Z,1.10
2022-12-07T18:33:41.020Z,1.47
2022-12-07T18:36:10.956Z,0.90
2022-12-07T18:38:40.184Z,1.43
2022-12-07T18:41:09.784Z,5.30
2022-12-07T18:43:40.890Z,2.53
2022-12-07T18:46:12.886Z,0.97
2022-12-07T18:48:42.482Z,2.13
2022-12-07T18:51:12.534Z,2.90
2022-12-07T18:53:41.935Z,1.10
2022-12-07T18:56:14.340Z,0.90
2022-12-07T18:58:59.069Z,1.03
2022-12-07T19:01:28.560Z,5.13
2022-12-07T19:03:57.848Z,1.40
2022-12-07T19:06:27.357Z,1.67
2022-12-07T19:08:56.823Z,0.90
2022-12-07T19:11:44.083Z,0.90
2022-12-07T19:14:15.567Z,0.70
2022-12-07T19:16:45.594Z,0.90
2022-12-07T19:19:14.856Z,0.90
2022-12-07T19:21:44.394Z,1.33
2022-12-07T19:24:18.328Z,0.80
2022-12-07T19:26:50.894Z,1.13
2022-12-07T19:29:21.466Z,0.90
2022-12-07T19:31:51.080Z,0.80
2022-12-07T19:34:20.461Z,0.90
2022-12-07T19:36:49.760Z,1.30
2022-12-07T19:39:18.974Z,0.90
2022-12-07T19:41:48.660Z,0.90
2022-12-07T19:44:18.603Z,0.80
2022-12-07T19:46:51.162Z,0.90
2022-12-07T19:49:21.045Z,0.80
2022-12-07T19:51:51.086Z,0.90
2022-12-07T19:54:21.829Z,0.70
2022-12-07T19:56:51.663Z,0.80
2022-12-07T19:59:21.903Z,0.90
2022-12-07T20:01:52.657Z,1.00
2022-12-07T20:04:22.666Z,0.80
2022-12-07T20:06:52.756Z,0.90
2022-12-07T20:09:22.357Z,0.90
2022-12-07T20:12:09.972Z,0.90
2022-12-07T20:14:39.489Z,0.90
2022-12-07T20:17:10.468Z,0.90
2022-12-07T20:19:40.020Z,0.80
2022-12-07T20:22:09.158Z,0.90
2022-12-07T20:24:38.432Z,0.90
2022-12-07T20:27:08.055Z,0.87
2022-12-07T20:29:37.538Z,0.80
2022-12-07T20:32:07.048Z,0.87
2022-12-07T20:34:37.673Z,1.40
2022-12-07T20:37:06.812Z,2.03
2022-12-07T20:39:36.242Z,0.90
2022-12-07T20:42:23.357Z,1.40
2022-12-07T20:44:52.630Z,2.50
2022-12-07T20:47:21.791Z,1.73
2022-12-07T20:49:53.417Z,0.87
2022-12-07T20:52:22.981Z,1.37
2022-12-07T20:54:52.217Z,1.40
2022-12-07T20:57:21.647Z,3.87
2022-12-07T20:59:50.740Z,2.80
2022-12-07T21:02:20.319Z,4.07
2022-12-07T21:04:49.691Z,0.90
2022-12-07T21:07:20.529Z,1.37
2022-12-07T21:09:51.413Z,0.90
2022-12-07T21:12:20.735Z,0.90
2022-12-07T21:14:49.911Z,2.03
2022-12-07T21:17:19.485Z,1.63
2022-12-07T21:19:48.765Z,0.80
2022-12-07T21:22:17.887Z,1.63
2022-12-07T21:24:48.551Z,1.83
2022-12-07T21:27:17.820Z,0.90
2022-12-07T21:29:50.925Z,2.90
2022-12-07T21:32:24.075Z,5.20
2022-12-07T21:34:53.231Z,1.00
2022-12-07T21:37:22.398Z,1.00
2022-12-07T21:39:53.097Z,1.43
2022-12-07T21:42:22.563Z,0.90
2022-12-07T21:44:51.692Z,0.90
2022-12-07T21:47:21.054Z,0.90
2022-12-07T21:49:50.181Z,0.90
2022-12-07T21:52:19.389Z,0.90
2022-12-07T21:54:49.856Z,0.90
2022-12-07T21:57:20.637Z,1.00
2022-12-07T21:59:49.845Z,0.90
2022-12-07T22:02:19.197Z,0.90
2022-12-07T22:04:48.378Z,0.90
2022-12-07T22:07:17.647Z,0.80
2022-12-07T22:09:46.975Z,0.90
2022-12-07T22:12:16.207Z,0.90
2022-12-07T22:15:06.998Z,0.90
2022-12-07T22:17:36.446Z,0.90
2022-12-07T22:20:05.818Z,0.90
2022-12-07T22:22:35.042Z,1.00
2022-12-07T22:25:04.414Z,1.10
2022-12-07T22:27:34.618Z,0.90
2022-12-07T22:30:05.262Z,1.10
2022-12-07T22:32:48.352Z,1.00
2022-12-07T22:35:18.470Z,0.90
2022-12-07T22:37:47.640Z,1.60
2022-12-07T22:40:17.493Z,1.00
2022-12-07T22:42:46.944Z,0.90
2022-12-07T22:45:18.243Z,1.10
2022-12-07T22:47:47.561Z,0.90
2022-12-07T22:50:16.956Z,0.90
2022-12-07T22:52:46.123Z,0.83
2022-12-07T22:55:15.362Z,0.97
2022-12-07T22:57:44.637Z,1.50
2022-12-07T23:00:14.345Z,1.00
2022-12-07T23:02:45.102Z,0.90
2022-12-07T23:05:14.305Z,1.00
2022-12-07T23:07:43.585Z,1.13
2022-12-07T23:10:13.527Z,1.00
2022-12-07T23:13:00.289Z,0.90
2022-12-07T23:15:29.765Z,0.90
2022-12-07T23:18:00.388Z,1.00
2022-12-07T23:20:29.899Z,0.87
2022-12-07T23:22:59.083Z,1.93
2022-12-07T23:25:28.384Z,0.80
2022-12-07T23:27:57.495Z,0.80
2022-12-07T23:30:28.768Z,1.13
2022-12-07T23:32:58.141Z,1.63
2022-12-07T23:35:28.723Z,0.90
2022-12-07T23:37:58.215Z,1.23
2022-12-07T23:40:27.458Z,1.50
2022-12-07T23:42:56.691Z,0.90
2022-12-07T23:45:26.239Z,0.90
2022-12-07T23:47:55.621Z,3.13
2022-12-07T23:50:24.804Z,0.97
2022-12-07T23:52:55.488Z,1.10
2022-12-07T23:55:24.765Z,0.93
2022-12-07T23:57:54.057Z,1.10
